Time;durP1;ratioP1;P1;durP2;ratioP2;P2;SDS_P1;SDS_P2;PMS_P1;PMS_P2;Temp;Humidity;BMP_temperature;BMP_pressure;BME280_temperature;BME280_humidity;BME280_pressure;Samples;Min_cycle;Max_cycle;Signal;HPM_P1;HPM_P2
2022/12/04 00:01:19;;;;;;;;;;;0.70;99.90;;;;;;4350035;28;10000753;-74
2022/12/04 00:03:45;;;;;;;;;;;0.80;99.90;;;;;;5048061;28;20022;-74
2022/12/04 00:06:12;;;;;;;;;;;0.70;99.90;;;;;;5035781;28;19960;-74
2022/12/04 00:08:38;;;;;;;;;;;0.70;99.90;;;;;;5051891;28;19982;-74
2022/12/04 00:11:05;;;;;;;;;;;0.70;99.90;;;;;;5041670;28;20340;-75
2022/12/04 00:13:31;;;;;;;;;;;0.70;99.90;;;;;;5054324;28;20533;-75
2022/12/04 00:15:58;;;;;;;;;;;0.70;99.90;;;;;;5037464;28;19932;-74
2022/12/04 00:18:23;;;;;;;;;;;2.10;99.90;;;;;;5054653;28;19921;-75
2022/12/04 00:20:49;;;;;;;;;;;2.50;99.90;;;;;;5057028;28;19931;-75
2022/12/04 00:23:14;;;;;;;;;;;0.70;99.90;;;;;;5053006;28;19992;-75
2022/12/04 00:25:40;;;;;;;;;;;0.70;99.90;;;;;;5055545;28;19921;-74
2022/12/04 00:28:06;;;;;;;;;;;0.50;99.90;;;;;;5051406;28;20419;-75
2022/12/04 00:30:31;;;;;;;;;;;0.70;99.90;;;;;;5052517;28;19920;-75
2022/12/04 00:32:57;;;;;;;;;;;0.60;99.90;;;;;;5035600;28;19929;-74
2022/12/04 00:35:22;;;;;;;;;;;0.60;99.90;;;;;;5032133;28;19979;-74
2022/12/04 00:37:48;;;;;;;;;;;0.60;99.90;;;;;;5052239;28;19928;-74
2022/12/04 00:40:13;;;;;;;;;;;0.80;99.90;;;;;;5049122;28;19927;-75
2022/12/04 00:42:39;;;;;;;;;;;0.70;99.90;;;;;;5033220;28;20018;-75
2022/12/04 00:45:05;;;;;;;;;;;0.10;99.90;;;;;;5052450;28;19995;-75
2022/12/04 00:47:30;;;;;;;;;;;-0.90;99.90;;;;;;5053676;28;20523;-74
2022/12/04 00:49:56;;;;;;;;;;;0.70;99.90;;;;;;5040570;28;19920;-75
2022/12/04 00:52:22;;;;;;;;;;;0.60;99.90;;;;;;5034045;28;19925;-75
2022/12/04 00:54:47;;;;;;;;;;;0.90;99.90;;;;;;5054831;28;20383;-74
2022/12/04 00:57:13;;;;;;;;;;;2.10;99.90;;;;;;5051576;28;19925;-74
2022/12/04 00:59:38;;;;;;;;;;;0.70;99.90;;;;;;5054018;28;19920;-75
2022/12/04 01:02:04;;;;;;;;;;;0.60;99.90;;;;;;5050850;28;19936;-74
2022/12/04 01:04:29;;;;;;;;;;;0.60;99.90;;;;;;5057264;28;19958;-74
2022/12/04 01:06:55;;;;;;;;;;;0.40;99.90;;;;;;5032533;28;20376;-74
2022/12/04 01:09:20;;;;;;;;;;;0.70;99.90;;;;;;5036014;28;20288;-73
2022/12/04 01:11:46;;;;;;;;;;;0.70;99.90;;;;;;5052377;28;20292;-75
2022/12/04 01:14:11;;;;;;;;;;;0.60;99.90;;;;;;5059318;28;19920;-74
2022/12/04 01:16:38;;;;;;;;;;;1.90;99.90;;;;;;5035945;28;19964;-73
2022/12/04 01:19:04;;;;;;;;;;;0.60;99.90;;;;;;5059146;28;20273;-74
2022/12/04 01:21:30;;;;;;;;;;;0.40;99.90;;;;;;5037696;28;20463;-74
2022/12/04 01:23:56;;;;;;;;;;;0.50;99.90;;;;;;5054157;28;19928;-75
2022/12/04 01:26:21;;;;;;;;;;;0.50;99.90;;;;;;5054568;28;19931;-74
2022/12/04 01:28:47;;;;;;;;;;;0.50;99.90;;;;;;5055934;28;19928;-74
2022/12/04 01:31:14;;;;;;;;;;;0.30;99.90;;;;;;5056386;28;19917;-74
2022/12/04 01:33:40;;;;;;;;;;;0.50;99.90;;;;;;5040169;28;20017;-74
2022/12/04 01:36:07;;;;;;;;;;;0.40;99.90;;;;;;5058701;28;20042;-74
2022/12/04 01:38:33;;;;;;;;;;;0.50;99.90;;;;;;5040345;28;19927;-75
2022/12/04 01:40:59;;;;;;;;;;;1.80;99.90;;;;;;5059771;28;19928;-73
2022/12/04 01:43:25;;;;;;;;;;;0.40;99.90;;;;;;5058948;28;19977;-74
2022/12/04 01:45:55;;;;;;;;;;;2.50;99.90;;;;;;5056181;28;19931;-73
2022/12/04 01:48:26;;;;;;;;;;;0.50;99.90;;;;;;5042916;28;19973;-73
2022/12/04 01:50:54;;;;;;;;;;;2.10;99.90;;;;;;5054465;28;19920;-74
2022/12/04 01:53:20;;;;;;;;;;;0.20;99.90;;;;;;5055525;28;19928;-74
2022/12/04 01:55:46;;;;;;;;;;;1.00;99.90;;;;;;5051642;28;19928;-74
2022/12/04 01:58:12;;;;;;;;;;;0.50;99.90;;;;;;5056796;28;20021;-73
2022/12/04 02:00:38;;;;;;;;;;;0.50;99.90;;;;;;5062199;28;19971;-74
2022/12/04 02:03:03;;;;;;;;;;;0.60;99.90;;;;;;5037029;28;19946;-74
2022/12/04 02:05:29;;;;;;;;;;;0.40;99.90;;;;;;5061556;28;19924;-73
2022/12/04 02:07:56;;;;;;;;;;;0.40;99.90;;;;;;5052998;28;19916;-74
2022/12/04 02:10:26;;;;;;;;;;;0.50;99.90;;;;;;5049604;28;20620;-75
2022/12/04 02:13:06;;;;;;;;;;;0.50;99.90;;;;;;5040752;28;19978;-76
2022/12/04 02:15:48;;;;;;;;;;;0.50;99.90;;;;;;5061795;28;20661;-74
2022/12/04 02:18:40;;;;;;;;;;;0.50;99.90;;;;;;5057493;28;19967;-74
2022/12/04 02:21:13;;;;;;;;;;;0.50;99.90;;;;;;5057645;28;19924;-74
2022/12/04 02:23:51;;;;;;;;;;;0.50;99.90;;;;;;5053290;28;20475;-73
2022/12/04 02:26:36;;;;;;;;;;;0.40;99.90;;;;;;5058820;28;19921;-73
2022/12/04 02:29:09;;;;;;;;;;;0.40;99.90;;;;;;5064478;28;19983;-73
2022/12/04 02:31:49;;;;;;;;;;;0.40;99.90;;;;;;5051972;28;19925;-74
2022/12/04 02:34:19;;;;;;;;;;;1.20;99.90;;;;;;5032796;28;19947;-74
2022/12/04 02:36:51;;;;;;;;;;;1.90;99.90;;;;;;5055075;28;19924;-73
2022/12/04 02:39:35;;;;;;;;;;;0.40;99.90;;;;;;5039661;28;19935;-74
2022/12/04 02:42:06;;;;;;;;;;;0.40;99.90;;;;;;5053165;28;19920;-73
2022/12/04 02:45:01;;;;;;;;;;;0.40;99.90;;;;;;5035613;28;19921;-74
2022/12/04 02:47:28;;;;;;;;;;;0.40;99.90;;;;;;5046468;28;19929;-73
2022/12/04 02:50:01;;;;;;;;;;;-0.20;99.90;;;;;;5034941;28;19931;-75
2022/12/04 02:52:30;;;;;;;;;;;0.30;99.90;;;;;;5052212;28;19976;-75
2022/12/04 02:54:58;;;;;;;;;;;0.20;99.90;;;;;;5054622;28;20368;-74
2022/12/04 02:57:25;;;;;;;;;;;0.30;99.90;;;;;;5054044;28;19920;-74
2022/12/04 02:59:52;;;;;;;;;;;0.30;99.90;;;;;;5055366;28;19936;-73
2022/12/04 03:02:22;;;;;;;;;;;0.30;99.90;;;;;;5039900;28;19925;-74
2022/12/04 03:04:49;;;;;;;;;;;2.10;99.90;;;;;;5040852;28;20380;-74
2022/12/04 03:07:22;;;;;;;;;;;0.30;99.90;;;;;;5053085;28;20542;-73
2022/12/04 03:09:51;;;;;;;;;;;0.40;99.90;;;;;;5036740;28;20300;-74
2022/12/04 03:12:37;;;;;;;;;;;0.40;99.90;;;;;;5056487;28;20019;-75
2022/12/04 03:15:09;;;;;;;;;;;0.40;99.90;;;;;;5052562;28;19924;-74
2022/12/04 03:17:46;;;;;;;;;;;0.30;99.90;;;;;;5068219;28;20494;-75
2022/12/04 03:20:13;;;;;;;;;;;0.30;99.90;;;;;;5054507;28;20027;-74
2022/12/04 03:22:41;;;;;;;;;;;0.30;99.90;;;;;;5052700;28;20802;-74
2022/12/04 03:25:07;;;;;;;;;;;0.20;99.90;;;;;;5058186;28;19928;-74
2022/12/04 03:27:37;;;;;;;;;;;0.30;99.90;;;;;;5057947;28;20054;-74
2022/12/04 03:30:07;;;;;;;;;;;0.30;99.90;;;;;;5035049;28;20015;-74
2022/12/04 03:32:49;;;;;;;;;;;0.30;99.90;;;;;;5060963;28;19920;-74
2022/12/04 03:35:17;;;;;;;;;;;0.00;99.90;;;;;;5062671;28;19925;-74
2022/12/04 03:38:06;;;;;;;;;;;0.20;99.90;;;;;;5053149;28;20016;-74
2022/12/04 03:41:02;;;;;;;;;;;1.70;99.90;;;;;;5048588;28;19928;-73
2022/12/04 03:43:33;;;;;;;;;;;0.20;99.90;;;;;;5048975;28;19974;-74
2022/12/04 03:46:04;;;;;;;;;;;0.20;99.90;;;;;;5050217;28;19964;-74
2022/12/04 03:48:35;;;;;;;;;;;0.10;99.90;;;;;;5035216;28;19927;-74
2022/12/04 03:51:05;;;;;;;;;;;0.10;99.90;;;;;;5059349;28;20358;-74
2022/12/04 03:53:38;;;;;;;;;;;1.40;99.90;;;;;;5056562;28;19974;-74
2022/12/04 03:56:15;;;;;;;;;;;0.10;99.90;;;;;;5055958;28;19925;-74
2022/12/04 03:58:44;;;;;;;;;;;0.10;99.90;;;;;;5064008;28;19924;-74
2022/12/04 04:01:10;;;;;;;;;;;1.00;99.90;;;;;;5058020;28;20446;-74
2022/12/04 04:03:38;;;;;;;;;;;1.20;99.90;;;;;;5050585;28;19921;-74
2022/12/04 04:06:11;;;;;;;;;;;0.20;99.90;;;;;;5035734;28;19936;-74
2022/12/04 04:08:38;;;;;;;;;;;0.20;99.90;;;;;;5034987;28;20014;-74
2022/12/04 04:11:12;;;;;;;;;;;0.20;99.90;;;;;;5063437;28;19924;-74
2022/12/04 04:25:09;;;;;;;;;;;0.20;99.90;;;;;;5058463;28;19926;-74
2022/12/04 04:27:34;;;;;;;;;;;0.20;99.90;;;;;;5061401;28;19920;-74
2022/12/04 04:30:00;;;;;;;;;;;0.20;99.90;;;;;;5059545;28;20061;-75
2022/12/04 04:32:33;;;;;;;;;;;0.60;99.90;;;;;;5059979;28;19973;-74
2022/12/04 04:35:18;;;;;;;;;;;0.70;99.90;;;;;;5053313;28;20022;-74
2022/12/04 04:38:08;;;;;;;;;;;0.10;99.90;;;;;;5047832;28;19941;-74
2022/12/04 04:40:34;;;;;;;;;;;0.30;99.90;;;;;;5054339;28;19989;-75
2022/12/04 04:43:08;;;;;;;;;;;0.10;99.90;;;;;;5040386;28;20368;-75
2022/12/04 04:45:33;;;;;;;;;;;0.10;99.90;;;;;;5063785;28;20030;-75
2022/12/04 04:48:03;;;;;;;;;;;0.20;99.90;;;;;;5040800;28;20365;-76
2022/12/04 04:50:30;;;;;;;;;;;0.10;99.90;;;;;;5057464;28;20022;-75
2022/12/04 04:52:59;;;;;;;;;;;0.10;99.90;;;;;;5038657;28;20049;-75
2022/12/04 04:55:25;;;;;;;;;;;0.10;99.90;;;;;;5070233;28;19927;-74
2022/12/04 04:57:51;;;;;;;;;;;0.00;99.90;;;;;;5054414;28;19928;-75
2022/12/04 05:00:18;;;;;;;;;;;0.10;99.90;;;;;;5044099;28;20011;-76
2022/12/04 05:02:44;;;;;;;;;;;0.00;99.90;;;;;;5042541;28;19935;-74
2022/12/04 05:05:10;;;;;;;;;;;-0.30;99.90;;;;;;5036771;28;19932;-75
2022/12/04 05:07:36;;;;;;;;;;;0.10;99.90;;;;;;5035573;28;19925;-75
2022/12/04 05:10:01;;;;;;;;;;;0.00;99.90;;;;;;5058411;28;19944;-75
2022/12/04 05:12:27;;;;;;;;;;;1.20;99.90;;;;;;5051454;28;19924;-75
2022/12/04 05:14:53;;;;;;;;;;;0.60;99.90;;;;;;5053470;28;20288;-76
2022/12/04 05:17:18;;;;;;;;;;;0.00;99.90;;;;;;5040463;28;19920;-75
2022/12/04 05:19:53;;;;;;;;;;;0.00;99.90;;;;;;5038776;28;20524;-74
2022/12/04 05:22:19;;;;;;;;;;;0.00;99.90;;;;;;5058088;28;19924;-75
2022/12/04 05:24:45;;;;;;;;;;;0.10;99.90;;;;;;5056877;28;20372;-75
2022/12/04 05:27:11;;;;;;;;;;;0.10;99.90;;;;;;5054655;28;19924;-75
2022/12/04 05:29:36;;;;;;;;;;;0.10;99.90;;;;;;5053543;28;19966;-76
2022/12/04 05:32:02;;;;;;;;;;;0.10;99.90;;;;;;5057995;28;19928;-75
2022/12/04 05:34:29;;;;;;;;;;;0.10;99.90;;;;;;5044796;28;19921;-75
2022/12/04 05:36:54;;;;;;;;;;;0.10;99.90;;;;;;5059404;28;20007;-76
2022/12/04 05:39:20;;;;;;;;;;;0.10;99.90;;;;;;5058940;28;20374;-75
2022/12/04 05:41:45;;;;;;;;;;;2.20;99.90;;;;;;5037829;28;19956;-76
2022/12/04 05:44:11;;;;;;;;;;;0.10;99.90;;;;;;5037637;28;19954;-75
2022/12/04 05:46:37;;;;;;;;;;;2.10;99.90;;;;;;5055014;28;19931;-75
2022/12/04 05:49:02;;;;;;;;;;;0.20;99.90;;;;;;5054863;28;19924;-75
2022/12/04 05:51:28;;;;;;;;;;;0.10;99.90;;;;;;5054360;28;20012;-75
2022/12/04 05:53:53;;;;;;;;;;;-0.10;99.90;;;;;;5054863;28;20000;-75
2022/12/04 05:56:19;;;;;;;;;;;0.20;99.90;;;;;;5060370;28;19938;-75
2022/12/04 05:58:44;;;;;;;;;;;0.20;99.90;;;;;;5058338;28;19970;-75
2022/12/04 06:01:11;;;;;;;;;;;0.20;99.90;;;;;;5059358;28;19928;-75
2022/12/04 06:03:37;;;;;;;;;;;0.20;99.90;;;;;;5060657;28;19928;-74
2022/12/04 06:06:03;;;;;;;;;;;0.10;99.90;;;;;;5045054;28;20828;-75
2022/12/04 06:08:29;;;;;;;;;;;0.90;99.90;;;;;;5036470;28;20473;-75
2022/12/04 06:10:55;;;;;;;;;;;0.20;99.90;;;;;;5057958;28;19925;-75
2022/12/04 06:13:20;;;;;;;;;;;1.00;99.90;;;;;;5055746;28;19925;-75
2022/12/04 06:15:46;;;;;;;;;;;0.20;99.90;;;;;;5057199;28;19944;-75
2022/12/04 06:18:11;;;;;;;;;;;0.60;99.90;;;;;;5058027;28;19924;-76
2022/12/04 06:20:37;;;;;;;;;;;0.20;99.90;;;;;;5056328;28;20027;-74
2022/12/04 06:23:02;;;;;;;;;;;0.10;99.90;;;;;;5060625;28;19980;-75
2022/12/04 06:25:28;;;;;;;;;;;0.30;99.90;;;;;;5063809;28;19999;-75
2022/12/04 06:27:54;;;;;;;;;;;0.20;99.90;;;;;;5063567;28;20372;-75
2022/12/04 06:30:19;;;;;;;;;;;0.20;99.90;;;;;;5059557;28;19928;-76
2022/12/04 06:32:45;;;;;;;;;;;0.20;99.90;;;;;;5061466;28;20007;-75
2022/12/04 06:35:10;;;;;;;;;;;0.20;99.90;;;;;;5056480;28;20404;-75
2022/12/04 06:37:36;;;;;;;;;;;0.30;99.90;;;;;;5060571;28;19925;-75
2022/12/04 06:40:02;;;;;;;;;;;0.30;99.90;;;;;;5050315;28;19932;-75
2022/12/04 06:42:27;;;;;;;;;;;0.40;99.90;;;;;;5044017;28;19924;-75
2022/12/04 06:44:53;;;;;;;;;;;-0.10;99.90;;;;;;5050601;28;19920;-75
2022/12/04 06:47:18;;;;;;;;;;;0.20;99.90;;;;;;5043779;28;19944;-75
2022/12/04 06:49:47;;;;;;;;;;;-0.20;99.90;;;;;;5062432;28;19924;-75
2022/12/04 06:52:13;;;;;;;;;;;-0.30;99.90;;;;;;5038688;28;19920;-75
2022/12/04 06:54:40;;;;;;;;;;;0.30;99.90;;;;;;5061932;28;19927;-74
2022/12/04 06:57:05;;;;;;;;;;;0.30;99.90;;;;;;5045132;28;19951;-73
2022/12/04 06:59:32;;;;;;;;;;;0.30;99.90;;;;;;5055293;28;19920;-75
2022/12/04 07:01:57;;;;;;;;;;;0.30;99.90;;;;;;5062342;28;19929;-75
2022/12/04 07:04:23;;;;;;;;;;;0.80;99.90;;;;;;5060500;28;19955;-76
2022/12/04 07:06:49;;;;;;;;;;;1.30;99.90;;;;;;5063813;28;20387;-74
2022/12/04 07:09:15;;;;;;;;;;;0.30;99.90;;;;;;5021610;28;19974;-73
2022/12/04 07:11:41;;;;;;;;;;;0.20;99.90;;;;;;5065509;28;19943;-73
2022/12/04 07:14:07;;;;;;;;;;;0.30;99.90;;;;;;5053949;28;20367;-74
2022/12/04 07:16:33;;;;;;;;;;;1.20;99.90;;;;;;5059168;28;19920;-73
2022/12/04 07:18:58;;;;;;;;;;;0.20;99.90;;;;;;5061809;28;20287;-74
2022/12/04 07:21:25;;;;;;;;;;;-0.60;99.90;;;;;;5040398;28;20361;-75
2022/12/04 07:23:52;;;;;;;;;;;-0.30;99.90;;;;;;5061718;28;20379;-74
2022/12/04 07:26:18;;;;;;;;;;;3.00;99.90;;;;;;5060434;28;19968;-74
2022/12/04 07:28:44;;;;;;;;;;;0.30;99.90;;;;;;5063020;28;19935;-74
2022/12/04 07:31:10;;;;;;;;;;;0.10;99.90;;;;;;5040370;28;19924;-75
2022/12/04 07:33:36;;;;;;;;;;;0.30;99.90;;;;;;5056271;28;19964;-74
2022/12/04 07:36:03;;;;;;;;;;;0.20;99.90;;;;;;5057591;28;19962;-73
2022/12/04 07:38:29;;;;;;;;;;;0.30;99.90;;;;;;5039788;28;20364;-74
2022/12/04 07:40:58;;;;;;;;;;;2.20;99.90;;;;;;5059593;28;19937;-74
2022/12/04 07:43:24;;;;;;;;;;;0.30;99.90;;;;;;5041054;28;19927;-74
2022/12/04 07:45:49;;;;;;;;;;;0.30;99.90;;;;;;5034539;28;19921;-73
2022/12/04 07:48:15;;;;;;;;;;;0.00;99.90;;;;;;5055883;28;19921;-73
2022/12/04 07:50:41;;;;;;;;;;;0.30;99.90;;;;;;5056768;28;19935;-74
2022/12/04 07:53:06;;;;;;;;;;;0.20;99.90;;;;;;5054225;28;19920;-74
2022/12/04 07:55:32;;;;;;;;;;;0.30;99.90;;;;;;5062696;28;19927;-73
2022/12/04 07:57:57;;;;;;;;;;;2.30;99.90;;;;;;5037508;28;19924;-74
2022/12/04 08:00:23;;;;;;;;;;;0.30;99.90;;;;;;5059371;28;19925;-74
2022/12/04 08:02:49;;;;;;;;;;;0.30;99.90;;;;;;5038691;28;19928;-74
2022/12/04 08:05:15;;;;;;;;;;;0.20;99.90;;;;;;5039741;28;20299;-74
2022/12/04 08:07:40;;;;;;;;;;;2.00;99.90;;;;;;5040530;28;19966;-74
2022/12/04 08:10:06;;;;;;;;;;;0.30;99.90;;;;;;5033394;28;19986;-74
2022/12/04 08:12:32;;;;;;;;;;;0.30;99.90;;;;;;5053250;28;19924;-74
2022/12/04 08:14:58;;;;;;;;;;;-0.80;99.90;;;;;;5055999;28;19935;-74
2022/12/04 08:17:23;;;;;;;;;;;0.30;99.90;;;;;;5057270;28;19935;-74
2022/12/04 08:19:49;;;;;;;;;;;0.40;99.90;;;;;;5057967;28;20015;-75
2022/12/04 08:22:15;;;;;;;;;;;2.40;99.90;;;;;;5038543;28;20392;-74
2022/12/04 08:24:41;;;;;;;;;;;0.20;99.90;;;;;;5060470;28;19928;-74
2022/12/04 08:27:06;;;;;;;;;;;0.30;99.90;;;;;;5036930;28;19916;-73
2022/12/04 08:29:32;;;;;;;;;;;0.40;99.90;;;;;;5036158;28;19978;-74
2022/12/04 08:31:57;;;;;;;;;;;0.30;99.90;;;;;;5057529;28;19925;-74
2022/12/04 08:34:23;;;;;;;;;;;0.30;99.90;;;;;;5058969;28;19927;-74
2022/12/04 08:36:49;;;;;;;;;;;0.40;99.90;;;;;;5049630;28;19932;-74
2022/12/04 08:39:14;;;;;;;;;;;0.40;99.90;;;;;;5055858;28;19924;-74
2022/12/04 08:41:40;;;;;;;;;;;0.90;99.90;;;;;;5053709;28;20440;-74
2022/12/04 08:44:05;;;;;;;;;;;1.20;99.90;;;;;;4704336;28;9999894;-75
2022/12/04 08:46:31;;;;;;;;;;;0.50;99.90;;;;;;5032436;28;19971;-75
2022/12/04 08:48:57;;;;;;;;;;;0.50;99.90;;;;;;5053165;28;20038;-75
2022/12/04 08:51:24;;;;;;;;;;;0.80;99.90;;;;;;5051884;28;19921;-75
2022/12/04 08:53:54;;;;;;;;;;;0.50;99.90;;;;;;5047844;28;19932;-76
2022/12/04 08:56:20;;;;;;;;;;;0.50;99.90;;;;;;5048996;28;20397;-75
2022/12/04 08:58:45;;;;;;;;;;;0.60;99.90;;;;;;5049895;28;19947;-75
2022/12/04 09:01:12;;;;;;;;;;;0.60;99.90;;;;;;5050177;28;19967;-75
2022/12/04 09:03:38;;;;;;;;;;;2.60;99.90;;;;;;5048748;28;19928;-75
2022/12/04 09:06:04;;;;;;;;;;;0.50;99.90;;;;;;5031495;28;19978;-75
2022/12/04 09:08:30;;;;;;;;;;;0.60;99.90;;;;;;5048743;28;19960;-75
2022/12/04 09:11:07;;;;;;;;;;;0.60;99.90;;;;;;5046641;28;20374;-75
2022/12/04 09:13:33;;;;;;;;;;;0.60;99.90;;;;;;5051502;28;19935;-75
2022/12/04 09:15:58;;;;;;;;;;;0.60;99.90;;;;;;5054379;28;19928;-75
2022/12/04 09:18:24;;;;;;;;;;;2.40;99.90;;;;;;5053346;28;19929;-75
2022/12/04 09:20:56;;;;;;;;;;;0.70;99.90;;;;;;5054012;28;19928;-76
2022/12/04 09:23:22;;;;;;;;;;;0.60;99.90;;;;;;5058425;28;20437;-76
2022/12/04 09:25:47;;;;;;;;;;;0.70;99.90;;;;;;5037946;28;19925;-76
2022/12/04 09:28:13;;;;;;;;;;;0.70;99.90;;;;;;5047753;28;20418;-75
2022/12/04 09:30:38;;;;;;;;;;;0.80;99.90;;;;;;5035777;28;19963;-76
2022/12/04 09:33:04;;;;;;;;;;;0.80;99.90;;;;;;5055766;28;19920;-75
2022/12/04 09:35:30;;;;;;;;;;;2.30;99.90;;;;;;5035833;28;19924;-74
2022/12/04 09:37:55;;;;;;;;;;;0.80;99.90;;;;;;5057627;28;19986;-75
2022/12/04 09:40:29;;;;;;;;;;;0.90;99.90;;;;;;5055525;28;20636;-74
2022/12/04 09:43:05;;;;;;;;;;;0.80;99.90;;;;;;5060213;28;20269;-74
2022/12/04 09:45:38;;;;;;;;;;;0.90;99.90;;;;;;5057864;28;20011;-74
2022/12/04 09:48:07;;;;;;;;;;;0.90;99.90;;;;;;5057194;28;19924;-74
2022/12/04 09:50:39;;;;;;;;;;;0.90;99.90;;;;;;5044345;28;20356;-74
2022/12/04 09:53:14;;;;;;;;;;;0.90;99.90;;;;;;5056418;28;20487;-74
2022/12/04 09:55:39;;;;;;;;;;;1.00;99.90;;;;;;5047085;28;19920;-76
2022/12/04 09:58:09;;;;;;;;;;;3.00;99.90;;;;;;5050849;28;19931;-75
2022/12/04 10:00:39;;;;;;;;;;;1.00;99.90;;;;;;5052952;28;20018;-75
2022/12/04 10:03:10;;;;;;;;;;;1.00;99.90;;;;;;5050713;28;20003;-74
2022/12/04 10:05:36;;;;;;;;;;;1.00;99.90;;;;;;5043535;28;19970;-74
2022/12/04 10:08:17;;;;;;;;;;;0.90;99.90;;;;;;5051538;28;19928;-74
2022/12/04 10:10:49;;;;;;;;;;;1.10;99.90;;;;;;5059064;28;19920;-76
2022/12/04 10:13:24;;;;;;;;;;;1.00;99.90;;;;;;5047583;28;19920;-75
2022/12/04 10:16:08;;;;;;;;;;;1.80;99.90;;;;;;5054622;28;20415;-74
2022/12/04 10:18:46;;;;;;;;;;;1.20;99.90;;;;;;5057023;28;19920;-75
2022/12/04 10:21:12;;;;;;;;;;;1.20;99.90;;;;;;5041761;28;19921;-74
2022/12/04 10:23:48;;;;;;;;;;;1.20;99.90;;;;;;5034281;28;19935;-74
2022/12/04 10:26:16;;;;;;;;;;;1.30;99.90;;;;;;5040363;28;19993;-75
2022/12/04 10:28:47;;;;;;;;;;;1.30;99.90;;;;;;5057882;28;20352;-75
2022/12/04 10:31:14;;;;;;;;;;;1.40;99.90;;;;;;5052320;28;19975;-75
2022/12/04 10:33:49;;;;;;;;;;;1.40;99.90;;;;;;5044280;28;20007;-75
2022/12/04 10:36:17;;;;;;;;;;;1.40;99.90;;;;;;5026192;28;20872;-77
2022/12/04 10:38:54;;;;;;;;;;;1.50;99.90;;;;;;5041097;28;19920;-75
2022/12/04 10:41:25;;;;;;;;;;;1.50;99.90;;;;;;5055415;28;19924;-75
2022/12/04 10:43:51;;;;;;;;;;;1.50;99.90;;;;;;5049664;28;19977;-77
2022/12/04 10:46:24;;;;;;;;;;;1.10;99.90;;;;;;5051657;28;19920;-79
2022/12/04 10:49:01;;;;;;;;;;;1.50;99.90;;;;;;5055248;28;19982;-77
2022/12/04 10:51:30;;;;;;;;;;;1.60;99.90;;;;;;5055506;28;19921;-77
2022/12/04 10:53:55;;;;;;;;;;;1.60;99.90;;;;;;5036566;28;19924;-77
2022/12/04 10:56:22;;;;;;;;;;;1.60;99.90;;;;;;5038654;28;20284;-77
2022/12/04 10:58:55;;;;;;;;;;;1.60;99.90;;;;;;5052581;28;19929;-76
2022/12/04 11:01:21;;;;;;;;;;;1.60;99.90;;;;;;5053900;28;19924;-78
2022/12/04 11:03:54;;;;;;;;;;;1.60;99.90;;;;;;5057501;28;19928;-76
2022/12/04 11:06:23;;;;;;;;;;;1.60;99.90;;;;;;5032887;28;19939;-77
2022/12/04 11:08:49;;;;;;;;;;;0.40;99.90;;;;;;5031819;28;19925;-73
2022/12/04 11:11:21;;;;;;;;;;;1.60;99.90;;;;;;5041154;28;20546;-75
2022/12/04 11:13:46;;;;;;;;;;;1.60;99.90;;;;;;5052620;28;19990;-75
2022/12/04 11:16:47;;;;;;;;;;;1.70;99.90;;;;;;5058967;28;19924;-75
2022/12/04 11:19:24;;;;;;;;;;;1.70;99.90;;;;;;5049778;28;19924;-75
2022/12/04 11:21:51;;;;;;;;;;;1.70;99.90;;;;;;5054780;28;20399;-76
2022/12/04 11:24:22;;;;;;;;;;;1.70;99.90;;;;;;5058089;28;19921;-73
2022/12/04 11:26:48;;;;;;;;;;;1.70;99.90;;;;;;5052507;28;19972;-74
2022/12/04 11:29:15;;;;;;;;;;;1.80;99.90;;;;;;5036797;28;19920;-76
2022/12/04 11:31:40;;;;;;;;;;;1.70;99.90;;;;;;5052561;28;19920;-75
2022/12/04 11:34:08;;;;;;;;;;;1.60;99.90;;;;;;5053075;28;19923;-73
2022/12/04 11:36:35;;;;;;;;;;;1.80;99.90;;;;;;5052304;28;19928;-74
2022/12/04 11:39:24;;;;;;;;;;;2.00;99.90;;;;;;5052776;28;19947;-73
2022/12/04 11:42:00;;;;;;;;;;;1.80;99.90;;;;;;5033519;28;20376;-73
2022/12/04 11:44:26;;;;;;;;;;;1.80;99.90;;;;;;5036376;28;19921;-75
2022/12/04 11:46:54;;;;;;;;;;;1.80;99.90;;;;;;5051697;28;19921;-75
2022/12/04 11:49:21;;;;;;;;;;;1.80;99.90;;;;;;5035324;28;19928;-75
2022/12/04 11:51:56;;;;;;;;;;;1.80;99.90;;;;;;5036336;28;19920;-74
2022/12/04 11:54:33;;;;;;;;;;;1.80;99.90;;;;;;5038589;28;19920;-76
2022/12/04 11:56:58;;;;;;;;;;;1.80;99.90;;;;;;5054073;28;19974;-77
2022/12/04 11:59:53;;;;;;;;;;;1.80;99.90;;;;;;5052463;28;19921;-74
2022/12/04 12:02:40;;;;;;;;;;;1.80;99.90;;;;;;5048102;28;19920;-76
2022/12/04 12:05:07;;;;;;;;;;;1.80;99.90;;;;;;4709443;28;9999892;-76
2022/12/04 12:07:33;;;;;;;;;;;2.50;99.90;;;;;;5051356;28;20761;-74
2022/12/04 12:10:18;;;;;;;;;;;1.80;99.90;;;;;;5053873;28;19924;-75
2022/12/04 12:12:55;;;;;;;;;;;1.80;99.90;;;;;;5078144;28;20452;-74
2022/12/04 12:15:40;;;;;;;;;;;2.30;99.90;;;;;;5036315;28;19932;-75
2022/12/04 12:18:12;;;;;;;;;;;1.90;99.90;;;;;;5052519;28;20011;-75
2022/12/04 12:20:46;;;;;;;;;;;1.80;99.90;;;;;;5050185;28;20019;-75
2022/12/04 12:23:18;;;;;;;;;;;1.90;99.90;;;;;;5035094;28;20527;-76
2022/12/04 12:25:59;;;;;;;;;;;1.90;99.90;;;;;;5033740;28;19925;-74
2022/12/04 12:28:43;;;;;;;;;;;1.90;99.90;;;;;;5039882;28;19924;-77
2022/12/04 12:31:12;;;;;;;;;;;1.90;99.90;;;;;;5048624;28;19921;-75
2022/12/04 12:33:41;;;;;;;;;;;1.90;99.90;;;;;;5032035;28;19932;-77
2022/12/04 12:36:12;;;;;;;;;;;1.90;99.90;;;;;;5034707;28;20522;-75
2022/12/04 12:38:42;;;;;;;;;;;1.90;99.90;;;;;;5037510;28;19987;-77
2022/12/04 12:41:16;;;;;;;;;;;2.30;99.90;;;;;;5046125;28;19928;-76
2022/12/04 12:43:43;;;;;;;;;;;2.00;99.90;;;;;;5049196;28;19929;-74
2022/12/04 12:46:13;;;;;;;;;;;2.50;99.90;;;;;;5050435;28;20014;-76
2022/12/04 12:48:51;;;;;;;;;;;2.00;99.90;;;;;;5036348;28;19985;-75
2022/12/04 12:51:34;;;;;;;;;;;2.00;99.90;;;;;;5053765;28;19929;-76
2022/12/04 12:54:19;;;;;;;;;;;2.00;99.90;;;;;;5049976;28;19925;-79
2022/12/04 12:56:48;;;;;;;;;;;3.90;99.90;;;;;;5052762;28;19921;-74
2022/12/04 12:59:16;;;;;;;;;;;2.00;99.90;;;;;;5036421;28;19931;-73
2022/12/04 13:01:45;;;;;;;;;;;2.00;99.90;;;;;;5033955;28;19921;-76
2022/12/04 13:04:13;;;;;;;;;;;2.10;99.90;;;;;;5036051;28;19969;-80
2022/12/04 13:06:40;;;;;;;;;;;2.00;99.90;;;;;;5053364;28;19955;-74
2022/12/04 13:09:15;;;;;;;;;;;2.10;99.90;;;;;;5041822;28;20510;-74
2022/12/04 13:11:41;;;;;;;;;;;2.10;99.90;;;;;;5055017;28;19931;-73
2022/12/04 13:14:10;;;;;;;;;;;2.00;99.90;;;;;;5055227;28;19925;-74
2022/12/04 13:16:44;;;;;;;;;;;2.10;99.90;;;;;;5053178;28;19924;-73
2022/12/04 13:19:19;;;;;;;;;;;2.10;99.90;;;;;;5052555;28;19925;-75
2022/12/04 13:21:56;;;;;;;;;;;2.10;99.90;;;;;;5050425;28;19927;-74
2022/12/04 13:24:35;;;;;;;;;;;2.00;99.90;;;;;;5052065;28;19998;-75
2022/12/04 13:27:19;;;;;;;;;;;2.10;99.90;;;;;;5060340;28;19928;-75
2022/12/04 13:29:54;;;;;;;;;;;2.10;99.90;;;;;;5049458;28;20372;-74
2022/12/04 13:32:32;;;;;;;;;;;2.10;99.90;;;;;;5052156;28;20445;-74
2022/12/04 13:35:27;;;;;;;;;;;2.10;99.90;;;;;;5037806;28;20387;-74
2022/12/04 13:37:59;;;;;;;;;;;2.10;99.90;;;;;;5048142;28;20012;-75
2022/12/04 13:40:41;;;;;;;;;;;2.20;99.90;;;;;;5046179;28;20368;-72
2022/12/04 13:43:19;;;;;;;;;;;2.90;99.90;;;;;;5036149;28;19928;-73
2022/12/04 13:45:46;;;;;;;;;;;2.20;99.90;;;;;;5056936;28;20561;-73
2022/12/04 13:48:12;;;;;;;;;;;2.20;99.90;;;;;;5037399;28;19968;-73
2022/12/04 13:50:38;;;;;;;;;;;2.20;99.90;;;;;;5052785;28;20037;-73
2022/12/04 13:53:04;;;;;;;;;;;3.00;99.90;;;;;;5063777;28;20030;-73
2022/12/04 13:55:34;;;;;;;;;;;2.00;99.90;;;;;;5049736;28;20439;-72
2022/12/04 13:58:09;;;;;;;;;;;2.20;99.90;;;;;;5031698;28;20039;-72
2022/12/04 14:00:36;;;;;;;;;;;2.30;99.90;;;;;;5052675;28;19924;-72
2022/12/04 14:03:03;;;;;;;;;;;2.30;99.90;;;;;;5028914;28;20110;-72
2022/12/04 14:05:31;;;;;;;;;;;2.30;99.90;;;;;;5049394;28;20388;-72
2022/12/04 14:08:02;;;;;;;;;;;3.00;99.90;;;;;;5032000;28;19921;-72
2022/12/04 14:10:29;;;;;;;;;;;2.30;99.90;;;;;;5050802;28;19928;-72
2022/12/04 14:12:57;;;;;;;;;;;2.30;99.90;;;;;;5048724;28;19973;-72
2022/12/04 14:15:24;;;;;;;;;;;2.30;99.90;;;;;;5047808;28;19929;-73
2022/12/04 14:18:01;;;;;;;;;;;1.80;99.90;;;;;;5053713;28;20440;-73
2022/12/04 14:20:28;;;;;;;;;;;2.30;99.90;;;;;;5032183;28;19928;-72
2022/12/04 14:22:54;;;;;;;;;;;2.30;99.90;;;;;;5038939;28;19959;-71
2022/12/04 14:25:36;;;;;;;;;;;2.30;99.90;;;;;;5055312;28;20341;-72
2022/12/04 14:28:13;;;;;;;;;;;2.30;99.90;;;;;;5051939;28;19932;-73
2022/12/04 14:30:39;;;;;;;;;;;2.20;99.90;;;;;;5062249;28;19929;-74
2022/12/04 14:33:08;;;;;;;;;;;2.30;99.90;;;;;;5057728;28;20024;-74
2022/12/04 14:35:35;;;;;;;;;;;2.30;99.90;;;;;;5055419;28;19925;-73
2022/12/04 14:38:02;;;;;;;;;;;2.60;99.90;;;;;;5035315;28;19920;-73
2022/12/04 14:40:32;;;;;;;;;;;2.20;99.90;;;;;;5060014;28;20011;-73
2022/12/04 14:42:57;;;;;;;;;;;3.90;99.90;;;;;;5037467;28;19924;-74
2022/12/04 14:45:32;;;;;;;;;;;3.80;99.90;;;;;;5062055;28;19982;-72
2022/12/04 14:47:57;;;;;;;;;;;2.20;99.90;;;;;;5051799;28;19932;-73
2022/12/04 14:50:42;;;;;;;;;;;2.20;99.90;;;;;;5035496;28;19978;-74
2022/12/04 14:53:07;;;;;;;;;;;2.20;99.90;;;;;;5058719;28;20000;-74